sensor_id;sensor_type;location;lat;lon;timestamp;P1;durP1;ratioP1;P2;durP2;ratioP2
63087;SDS011;49173;43.164;27.786;2022-08-21T00:01:05;9.05;;;7.80;;
63087;SDS011;49173;43.164;27.786;2022-08-21T00:03:35;9.25;;;7.53;;
63087;SDS011;49173;43.164;27.786;2022-08-21T00:06:01;9.52;;;8.60;;
63087;SDS011;49173;43.164;27.786;2022-08-21T00:08:27;8.63;;;7.78;;
63087;SDS011;49173;43.164;27.786;2022-08-21T00:10:53;11.15;;;8.75;;
63087;SDS011;49173;43.164;27.786;2022-08-21T00:13:19;10.63;;;7.63;;
63087;SDS011;49173;43.164;27.786;2022-08-21T00:15:45;10.98;;;8.40;;
63087;SDS011;49173;43.164;27.786;2022-08-21T00:18:12;10.57;;;8.88;;
63087;SDS011;49173;43.164;27.786;2022-08-21T00:20:40;10.50;;;8.55;;
63087;SDS011;49173;43.164;27.786;2022-08-21T00:23:07;10.75;;;8.52;;
63087;SDS011;49173;43.164;27.786;2022-08-21T00:25:34;12.52;;;8.50;;
63087;SDS011;49173;43.164;27.786;2022-08-21T00:28:00;9.45;;;8.55;;
63087;SDS011;49173;43.164;27.786;2022-08-21T00:30:27;9.63;;;8.63;;
63087;SDS011;49173;43.164;27.786;2022-08-21T00:32:55;9.02;;;8.18;;
63087;SDS011;49173;43.164;27.786;2022-08-21T00:35:23;9.80;;;8.80;;
63087;SDS011;49173;43.164;27.786;2022-08-21T00:37:52;15.07;;;9.10;;
63087;SDS011;49173;43.164;27.786;2022-08-21T00:40:19;9.55;;;8.55;;
63087;SDS011;49173;43.164;27.786;2022-08-21T00:42:49;9.82;;;8.82;;
63087;SDS011;49173;43.164;27.786;2022-08-21T00:45:15;9.50;;;8.50;;
63087;SDS011;49173;43.164;27.786;2022-08-21T00:47:41;12.52;;;9.68;;
63087;SDS011;49173;43.164;27.786;2022-08-21T00:50:09;10.93;;;8.85;;
63087;SDS011;49173;43.164;27.786;2022-08-21T00:52:35;12.20;;;9.40;;
63087;SDS011;49173;43.164;27.786;2022-08-21T00:55:04;9.85;;;8.90;;
63087;SDS011;49173;43.164;27.786;2022-08-21T00:57:36;11.93;;;8.90;;
63087;SDS011;49173;43.164;27.786;2022-08-21T01:00:07;9.52;;;8.55;;
63087;SDS011;49173;43.164;27.786;2022-08-21T01:02:36;9.88;;;8.27;;
63087;SDS011;49173;43.164;27.786;2022-08-21T01:05:03;13.20;;;9.10;;
63087;SDS011;49173;43.164;27.786;2022-08-21T01:07:30;9.00;;;8.07;;
63087;SDS011;49173;43.164;27.786;2022-08-21T01:09:57;11.77;;;8.48;;
63087;SDS011;49173;43.164;27.786;2022-08-21T01:12:23;8.25;;;7.05;;
63087;SDS011;49173;43.164;27.786;2022-08-21T01:14:49;8.90;;;7.97;;
63087;SDS011;49173;43.164;27.786;2022-08-21T01:17:15;9.13;;;7.70;;
63087;SDS011;49173;43.164;27.786;2022-08-21T01:19:41;10.13;;;7.72;;
63087;SDS011;49173;43.164;27.786;2022-08-21T01:22:07;8.88;;;7.63;;
63087;SDS011;49173;43.164;27.786;2022-08-21T01:24:35;8.70;;;7.70;;
63087;SDS011;49173;43.164;27.786;2022-08-21T01:27:01;10.93;;;8.63;;
63087;SDS011;49173;43.164;27.786;2022-08-21T01:29:33;12.52;;;9.23;;
63087;SDS011;49173;43.164;27.786;2022-08-21T01:32:17;11.10;;;9.57;;
63087;SDS011;49173;43.164;27.786;2022-08-21T01:34:45;12.15;;;10.00;;
63087;SDS011;49173;43.164;27.786;2022-08-21T01:37:13;10.00;;;9.00;;
63087;SDS011;49173;43.164;27.786;2022-08-21T01:39:40;13.98;;;9.88;;
63087;SDS011;49173;43.164;27.786;2022-08-21T01:42:07;11.95;;;9.52;;
63087;SDS011;49173;43.164;27.786;2022-08-21T01:44:33;12.80;;;10.50;;
63087;SDS011;49173;43.164;27.786;2022-08-21T01:47:02;13.07;;;10.30;;
63087;SDS011;49173;43.164;27.786;2022-08-21T01:49:31;10.73;;;9.55;;
63087;SDS011;49173;43.164;27.786;2022-08-21T01:51:57;13.18;;;10.25;;
63087;SDS011;49173;43.164;27.786;2022-08-21T01:54:23;12.02;;;10.15;;
63087;SDS011;49173;43.164;27.786;2022-08-21T01:56:49;10.90;;;9.80;;
63087;SDS011;49173;43.164;27.786;2022-08-21T02:01:43;10.90;;;9.60;;
63087;SDS011;49173;43.164;27.786;2022-08-21T02:04:09;11.48;;;9.68;;
63087;SDS011;49173;43.164;27.786;2022-08-21T02:06:36;14.13;;;9.93;;
63087;SDS011;49173;43.164;27.786;2022-08-21T02:09:04;11.68;;;10.40;;
63087;SDS011;49173;43.164;27.786;2022-08-21T02:11:31;11.37;;;9.23;;
63087;SDS011;49173;43.164;27.786;2022-08-21T02:13:59;11.13;;;9.13;;
63087;SDS011;49173;43.164;27.786;2022-08-21T02:16:25;10.80;;;9.15;;
63087;SDS011;49173;43.164;27.786;2022-08-21T02:18:51;11.80;;;9.43;;
63087;SDS011;49173;43.164;27.786;2022-08-21T02:21:17;11.60;;;9.23;;
63087;SDS011;49173;43.164;27.786;2022-08-21T02:23:43;11.38;;;9.68;;
63087;SDS011;49173;43.164;27.786;2022-08-21T02:26:11;11.65;;;10.18;;
63087;SDS011;49173;43.164;27.786;2022-08-21T02:28:38;12.30;;;10.10;;
63087;SDS011;49173;43.164;27.786;2022-08-21T02:31:04;14.73;;;11.30;;
63087;SDS011;49173;43.164;27.786;2022-08-21T02:33:31;13.90;;;10.35;;
63087;SDS011;49173;43.164;27.786;2022-08-21T02:35:57;13.35;;;11.45;;
63087;SDS011;49173;43.164;27.786;2022-08-21T02:38:26;14.93;;;11.25;;
63087;SDS011;49173;43.164;27.786;2022-08-21T02:40:53;20.20;;;13.27;;
63087;SDS011;49173;43.164;27.786;2022-08-21T02:43:21;18.25;;;14.75;;
63087;SDS011;49173;43.164;27.786;2022-08-21T02:45:49;21.92;;;19.33;;
63087;SDS011;49173;43.164;27.786;2022-08-21T02:48:17;25.67;;;21.85;;
63087;SDS011;49173;43.164;27.786;2022-08-21T02:53:17;25.88;;;21.33;;
63087;SDS011;49173;43.164;27.786;2022-08-21T02:55:43;28.65;;;21.90;;
63087;SDS011;49173;43.164;27.786;2022-08-21T02:58:12;34.47;;;24.25;;
63087;SDS011;49173;43.164;27.786;2022-08-21T03:00:40;31.23;;;26.02;;
63087;SDS011;49173;43.164;27.786;2022-08-21T03:03:07;32.72;;;26.17;;
63087;SDS011;49173;43.164;27.786;2022-08-21T03:05:33;34.95;;;25.58;;
63087;SDS011;49173;43.164;27.786;2022-08-21T03:08:03;35.10;;;28.13;;
63087;SDS011;49173;43.164;27.786;2022-08-21T03:10:34;37.33;;;28.98;;
63087;SDS011;49173;43.164;27.786;2022-08-21T03:13:01;37.90;;;29.65;;
63087;SDS011;49173;43.164;27.786;2022-08-21T03:15:28;41.47;;;30.88;;
63087;SDS011;49173;43.164;27.786;2022-08-21T03:17:55;43.53;;;31.40;;
63087;SDS011;49173;43.164;27.786;2022-08-21T03:20:23;41.88;;;30.92;;
63087;SDS011;49173;43.164;27.786;2022-08-21T03:22:51;37.85;;;30.95;;
63087;SDS011;49173;43.164;27.786;2022-08-21T03:25:18;43.80;;;31.58;;
63087;SDS011;49173;43.164;27.786;2022-08-21T03:27:45;39.92;;;31.75;;
63087;SDS011;49173;43.164;27.786;2022-08-21T03:30:14;45.37;;;34.17;;
63087;SDS011;49173;43.164;27.786;2022-08-21T03:32:41;47.15;;;35.38;;
63087;SDS011;49173;43.164;27.786;2022-08-21T03:35:07;46.95;;;36.03;;
63087;SDS011;49173;43.164;27.786;2022-08-21T03:37:34;48.20;;;36.88;;
63087;SDS011;49173;43.164;27.786;2022-08-21T03:40:01;48.45;;;37.47;;
63087;SDS011;49173;43.164;27.786;2022-08-21T03:42:29;46.97;;;35.38;;
63087;SDS011;49173;43.164;27.786;2022-08-21T03:44:54;41.58;;;31.73;;
63087;SDS011;49173;43.164;27.786;2022-08-21T03:47:20;43.63;;;34.15;;
63087;SDS011;49173;43.164;27.786;2022-08-21T03:49:47;42.80;;;33.22;;
63087;SDS011;49173;43.164;27.786;2022-08-21T03:52:13;37.45;;;30.33;;
63087;SDS011;49173;43.164;27.786;2022-08-21T03:54:40;36.97;;;29.73;;
63087;SDS011;49173;43.164;27.786;2022-08-21T03:57:06;37.13;;;29.88;;
63087;SDS011;49173;43.164;27.786;2022-08-21T03:59:34;39.55;;;30.90;;
63087;SDS011;49173;43.164;27.786;2022-08-21T04:02:01;37.28;;;31.38;;
63087;SDS011;49173;43.164;27.786;2022-08-21T04:04:29;43.63;;;33.47;;
63087;SDS011;49173;43.164;27.786;2022-08-21T04:06:56;43.50;;;32.92;;
63087;SDS011;49173;43.164;27.786;2022-08-21T04:09:22;43.92;;;33.95;;
63087;SDS011;49173;43.164;27.786;2022-08-21T04:11:49;53.65;;;36.83;;
63087;SDS011;49173;43.164;27.786;2022-08-21T04:14:15;55.45;;;40.25;;
63087;SDS011;49173;43.164;27.786;2022-08-21T04:16:42;54.72;;;41.90;;
63087;SDS011;49173;43.164;27.786;2022-08-21T04:19:09;53.08;;;40.58;;
63087;SDS011;49173;43.164;27.786;2022-08-21T04:21:36;58.35;;;43.13;;
63087;SDS011;49173;43.164;27.786;2022-08-21T04:24:03;62.05;;;47.25;;
63087;SDS011;49173;43.164;27.786;2022-08-21T04:26:30;63.42;;;47.28;;
63087;SDS011;49173;43.164;27.786;2022-08-21T04:28:56;71.25;;;49.60;;
63087;SDS011;49173;43.164;27.786;2022-08-21T04:31:24;70.40;;;49.72;;
63087;SDS011;49173;43.164;27.786;2022-08-21T04:33:50;76.95;;;52.03;;
63087;SDS011;49173;43.164;27.786;2022-08-21T04:36:16;77.03;;;52.63;;
63087;SDS011;49173;43.164;27.786;2022-08-21T04:38:42;69.45;;;46.42;;
63087;SDS011;49173;43.164;27.786;2022-08-21T04:41:09;52.25;;;37.00;;
63087;SDS011;49173;43.164;27.786;2022-08-21T04:43:35;38.75;;;31.83;;
63087;SDS011;49173;43.164;27.786;2022-08-21T04:46:01;38.90;;;31.08;;
63087;SDS011;49173;43.164;27.786;2022-08-21T04:48:27;48.15;;;36.75;;
63087;SDS011;49173;43.164;27.786;2022-08-21T04:50:57;62.17;;;43.75;;
63087;SDS011;49173;43.164;27.786;2022-08-21T04:56:01;46.47;;;35.60;;
63087;SDS011;49173;43.164;27.786;2022-08-21T04:58:32;46.97;;;35.28;;
63087;SDS011;49173;43.164;27.786;2022-08-21T05:01:00;51.85;;;32.63;;
63087;SDS011;49173;43.164;27.786;2022-08-21T05:03:27;47.92;;;35.53;;
63087;SDS011;49173;43.164;27.786;2022-08-21T05:08:23;47.45;;;32.45;;
63087;SDS011;49173;43.164;27.786;2022-08-21T05:10:50;47.27;;;32.83;;
63087;SDS011;49173;43.164;27.786;2022-08-21T05:13:16;52.55;;;37.70;;
63087;SDS011;49173;43.164;27.786;2022-08-21T05:15:43;45.60;;;37.75;;
63087;SDS011;49173;43.164;27.786;2022-08-21T05:18:09;48.78;;;37.67;;
63087;SDS011;49173;43.164;27.786;2022-08-21T05:20:35;49.83;;;37.40;;
63087;SDS011;49173;43.164;27.786;2022-08-21T05:23:06;42.50;;;31.60;;
63087;SDS011;49173;43.164;27.786;2022-08-21T05:25:36;43.15;;;32.38;;
63087;SDS011;49173;43.164;27.786;2022-08-21T05:28:03;41.38;;;33.45;;
63087;SDS011;49173;43.164;27.786;2022-08-21T05:30:29;37.92;;;29.08;;
63087;SDS011;49173;43.164;27.786;2022-08-21T05:32:58;34.55;;;28.67;;
63087;SDS011;49173;43.164;27.786;2022-08-21T05:35:27;35.50;;;28.75;;
63087;SDS011;49173;43.164;27.786;2022-08-21T05:37:54;45.22;;;31.92;;
63087;SDS011;49173;43.164;27.786;2022-08-21T05:40:21;30.20;;;25.15;;
63087;SDS011;49173;43.164;27.786;2022-08-21T05:42:47;37.78;;;28.80;;
63087;SDS011;49173;43.164;27.786;2022-08-21T05:45:13;40.65;;;30.02;;
63087;SDS011;49173;43.164;27.786;2022-08-21T05:47:39;34.47;;;27.33;;
63087;SDS011;49173;43.164;27.786;2022-08-21T05:50:05;30.80;;;23.73;;
63087;SDS011;49173;43.164;27.786;2022-08-21T05:52:31;27.88;;;23.77;;
63087;SDS011;49173;43.164;27.786;2022-08-21T05:54:57;26.75;;;22.65;;
63087;SDS011;49173;43.164;27.786;2022-08-21T05:57:23;27.08;;;21.52;;
63087;SDS011;49173;43.164;27.786;2022-08-21T05:59:50;26.38;;;19.88;;
63087;SDS011;49173;43.164;27.786;2022-08-21T06:02:17;24.35;;;19.45;;
63087;SDS011;49173;43.164;27.786;2022-08-21T06:04:45;21.23;;;17.80;;
63087;SDS011;49173;43.164;27.786;2022-08-21T06:07:11;24.67;;;19.40;;
63087;SDS011;49173;43.164;27.786;2022-08-21T06:09:37;21.08;;;16.60;;
63087;SDS011;49173;43.164;27.786;2022-08-21T06:12:07;17.92;;;14.57;;
63087;SDS011;49173;43.164;27.786;2022-08-21T06:14:35;18.25;;;15.10;;
63087;SDS011;49173;43.164;27.786;2022-08-21T06:17:06;15.70;;;13.23;;
63087;SDS011;49173;43.164;27.786;2022-08-21T06:19:33;16.77;;;13.20;;
63087;SDS011;49173;43.164;27.786;2022-08-21T06:22:00;15.15;;;13.40;;
63087;SDS011;49173;43.164;27.786;2022-08-21T06:24:26;19.88;;;12.32;;
63087;SDS011;49173;43.164;27.786;2022-08-21T06:26:52;18.92;;;12.75;;
63087;SDS011;49173;43.164;27.786;2022-08-21T06:29:19;15.27;;;11.55;;
63087;SDS011;49173;43.164;27.786;2022-08-21T06:31:45;15.00;;;11.55;;
63087;SDS011;49173;43.164;27.786;2022-08-21T06:34:12;14.52;;;11.70;;
63087;SDS011;49173;43.164;27.786;2022-08-21T06:36:38;12.70;;;9.95;;
63087;SDS011;49173;43.164;27.786;2022-08-21T06:39:05;10.65;;;8.50;;
63087;SDS011;49173;43.164;27.786;2022-08-21T06:41:31;10.55;;;9.32;;
63087;SDS011;49173;43.164;27.786;2022-08-21T06:43:58;9.73;;;8.55;;
63087;SDS011;49173;43.164;27.786;2022-08-21T06:46:28;12.40;;;7.97;;
63087;SDS011;49173;43.164;27.786;2022-08-21T06:48:55;9.57;;;7.00;;
63087;SDS011;49173;43.164;27.786;2022-08-21T06:51:21;8.40;;;7.50;;
63087;SDS011;49173;43.164;27.786;2022-08-21T06:53:49;8.30;;;7.37;;
63087;SDS011;49173;43.164;27.786;2022-08-21T06:56:15;7.53;;;6.70;;
63087;SDS011;49173;43.164;27.786;2022-08-21T06:58:41;9.30;;;7.13;;
63087;SDS011;49173;43.164;27.786;2022-08-21T07:01:07;9.60;;;6.75;;
63087;SDS011;49173;43.164;27.786;2022-08-21T07:03:35;8.20;;;5.85;;
63087;SDS011;49173;43.164;27.786;2022-08-21T07:06:03;9.50;;;5.80;;
63087;SDS011;49173;43.164;27.786;2022-08-21T07:08:30;7.65;;;5.95;;
63087;SDS011;49173;43.164;27.786;2022-08-21T07:10:56;9.95;;;5.78;;
63087;SDS011;49173;43.164;27.786;2022-08-21T07:13:23;9.20;;;5.93;;
63087;SDS011;49173;43.164;27.786;2022-08-21T07:15:49;6.85;;;5.97;;
63087;SDS011;49173;43.164;27.786;2022-08-21T07:18:15;6.22;;;5.28;;
63087;SDS011;49173;43.164;27.786;2022-08-21T07:20:41;9.13;;;5.40;;
63087;SDS011;49173;43.164;27.786;2022-08-21T07:23:10;9.57;;;6.10;;
63087;SDS011;49173;43.164;27.786;2022-08-21T07:25:48;8.27;;;5.10;;
63087;SDS011;49173;43.164;27.786;2022-08-21T07:28:14;6.72;;;5.85;;
63087;SDS011;49173;43.164;27.786;2022-08-21T07:30:40;11.07;;;5.22;;
63087;SDS011;49173;43.164;27.786;2022-08-21T07:33:06;13.88;;;6.28;;
63087;SDS011;49173;43.164;27.786;2022-08-21T07:35:32;8.13;;;5.85;;
63087;SDS011;49173;43.164;27.786;2022-08-21T07:37:58;8.85;;;5.57;;
63087;SDS011;49173;43.164;27.786;2022-08-21T07:40:24;7.97;;;5.50;;
63087;SDS011;49173;43.164;27.786;2022-08-21T07:42:50;6.30;;;5.38;;
63087;SDS011;49173;43.164;27.786;2022-08-21T07:45:20;6.97;;;6.18;;
63087;SDS011;49173;43.164;27.786;2022-08-21T07:47:47;7.95;;;5.90;;
63087;SDS011;49173;43.164;27.786;2022-08-21T07:50:14;10.48;;;6.25;;
63087;SDS011;49173;43.164;27.786;2022-08-21T07:52:40;9.07;;;5.75;;
63087;SDS011;49173;43.164;27.786;2022-08-21T07:55:10;13.63;;;5.90;;
63087;SDS011;49173;43.164;27.786;2022-08-21T07:57:37;9.35;;;5.63;;
63087;SDS011;49173;43.164;27.786;2022-08-21T08:00:05;10.45;;;6.10;;
63087;SDS011;49173;43.164;27.786;2022-08-21T08:02:34;6.70;;;6.00;;
63087;SDS011;49173;43.164;27.786;2022-08-21T08:05:00;9.30;;;5.55;;
63087;SDS011;49173;43.164;27.786;2022-08-21T08:07:27;7.15;;;5.28;;
63087;SDS011;49173;43.164;27.786;2022-08-21T08:09:53;13.25;;;6.05;;
63087;SDS011;49173;43.164;27.786;2022-08-21T08:12:19;14.27;;;6.03;;
63087;SDS011;49173;43.164;27.786;2022-08-21T08:14:45;8.57;;;5.47;;
63087;SDS011;49173;43.164;27.786;2022-08-21T08:17:11;10.82;;;5.68;;
63087;SDS011;49173;43.164;27.786;2022-08-21T08:19:39;10.77;;;5.63;;
63087;SDS011;49173;43.164;27.786;2022-08-21T08:22:12;8.20;;;5.82;;
63087;SDS011;49173;43.164;27.786;2022-08-21T08:24:42;8.82;;;6.07;;
63087;SDS011;49173;43.164;27.786;2022-08-21T08:27:08;9.00;;;6.28;;
63087;SDS011;49173;43.164;27.786;2022-08-21T08:29:34;11.23;;;5.68;;
63087;SDS011;49173;43.164;27.786;2022-08-21T08:32:00;10.65;;;4.97;;
63087;SDS011;49173;43.164;27.786;2022-08-21T08:34:26;8.15;;;5.60;;
63087;SDS011;49173;43.164;27.786;2022-08-21T08:36:52;11.35;;;4.55;;
63087;SDS011;49173;43.164;27.786;2022-08-21T08:39:18;12.15;;;5.97;;
63087;SDS011;49173;43.164;27.786;2022-08-21T08:41:45;11.82;;;4.80;;
63087;SDS011;49173;43.164;27.786;2022-08-21T08:44:16;11.07;;;5.25;;
63087;SDS011;49173;43.164;27.786;2022-08-21T08:46:46;6.00;;;4.55;;
63087;SDS011;49173;43.164;27.786;2022-08-21T08:49:18;10.82;;;4.55;;
63087;SDS011;49173;43.164;27.786;2022-08-21T08:51:56;8.38;;;4.65;;
63087;SDS011;49173;43.164;27.786;2022-08-21T08:54:42;7.22;;;4.40;;
63087;SDS011;49173;43.164;27.786;2022-08-21T08:57:16;6.10;;;4.38;;
63087;SDS011;49173;43.164;27.786;2022-08-21T08:59:47;8.32;;;4.43;;
63087;SDS011;49173;43.164;27.786;2022-08-21T09:02:20;6.72;;;3.92;;
63087;SDS011;49173;43.164;27.786;2022-08-21T09:04:53;9.50;;;4.28;;
63087;SDS011;49173;43.164;27.786;2022-08-21T09:07:39;6.18;;;3.67;;
63087;SDS011;49173;43.164;27.786;2022-08-21T09:10:16;9.90;;;4.10;;
63087;SDS011;49173;43.164;27.786;2022-08-21T09:19:11;9.32;;;4.05;;
63087;SDS011;49173;43.164;27.786;2022-08-21T09:22:16;7.25;;;4.13;;
63087;SDS011;49173;43.164;27.786;2022-08-21T09:27:37;10.30;;;4.03;;
63087;SDS011;49173;43.164;27.786;2022-08-21T09:30:04;7.03;;;3.92;;
63087;SDS011;49173;43.164;27.786;2022-08-21T09:32:32;9.45;;;3.72;;
63087;SDS011;49173;43.164;27.786;2022-08-21T09:35:05;12.88;;;4.30;;
63087;SDS011;49173;43.164;27.786;2022-08-21T09:37:46;8.15;;;4.22;;
63087;SDS011;49173;43.164;27.786;2022-08-21T09:40:26;6.95;;;3.50;;
63087;SDS011;49173;43.164;27.786;2022-08-21T09:42:57;9.90;;;4.00;;
63087;SDS011;49173;43.164;27.786;2022-08-21T09:45:29;8.07;;;3.85;;
63087;SDS011;49173;43.164;27.786;2022-08-21T09:50:36;8.98;;;4.40;;
63087;SDS011;49173;43.164;27.786;2022-08-21T09:53:13;10.70;;;3.97;;
63087;SDS011;49173;43.164;27.786;2022-08-21T09:55:57;10.80;;;4.00;;
63087;SDS011;49173;43.164;27.786;2022-08-21T09:58:49;10.32;;;3.60;;
63087;SDS011;49173;43.164;27.786;2022-08-21T10:03:47;8.70;;;3.47;;
63087;SDS011;49173;43.164;27.786;2022-08-21T10:06:23;12.38;;;3.60;;
63087;SDS011;49173;43.164;27.786;2022-08-21T10:09:03;10.38;;;4.00;;
63087;SDS011;49173;43.164;27.786;2022-08-21T10:11:39;10.43;;;4.35;;
63087;SDS011;49173;43.164;27.786;2022-08-21T10:14:33;11.88;;;4.00;;
63087;SDS011;49173;43.164;27.786;2022-08-21T10:17:49;5.78;;;3.53;;
63087;SDS011;49173;43.164;27.786;2022-08-21T10:20:38;9.90;;;4.05;;
63087;SDS011;49173;43.164;27.786;2022-08-21T10:25:58;11.55;;;3.55;;
63087;SDS011;49173;43.164;27.786;2022-08-21T10:37:23;9.10;;;4.25;;
63087;SDS011;49173;43.164;27.786;2022-08-21T10:42:52;11.20;;;4.45;;
63087;SDS011;49173;43.164;27.786;2022-08-21T10:45:35;8.95;;;4.07;;
63087;SDS011;49173;43.164;27.786;2022-08-21T10:48:06;11.52;;;4.45;;
63087;SDS011;49173;43.164;27.786;2022-08-21T10:56:13;8.27;;;4.40;;
63087;SDS011;49173;43.164;27.786;2022-08-21T11:01:33;11.77;;;4.30;;
63087;SDS011;49173;43.164;27.786;2022-08-21T11:07:03;10.98;;;4.13;;
63087;SDS011;49173;43.164;27.786;2022-08-21T11:09:36;9.48;;;3.72;;
63087;SDS011;49173;43.164;27.786;2022-08-21T11:12:15;9.45;;;4.05;;
63087;SDS011;49173;43.164;27.786;2022-08-21T11:14:55;9.55;;;4.00;;
63087;SDS011;49173;43.164;27.786;2022-08-21T11:17:44;11.43;;;4.10;;
63087;SDS011;49173;43.164;27.786;2022-08-21T11:20:24;7.22;;;4.30;;
63087;SDS011;49173;43.164;27.786;2022-08-21T11:23:14;10.20;;;5.00;;
63087;SDS011;49173;43.164;27.786;2022-08-21T11:25:56;9.13;;;4.82;;
63087;SDS011;49173;43.164;27.786;2022-08-21T11:28:32;11.80;;;4.65;;
63087;SDS011;49173;43.164;27.786;2022-08-21T11:31:20;10.55;;;4.70;;
63087;SDS011;49173;43.164;27.786;2022-08-21T11:34:17;11.57;;;5.80;;
63087;SDS011;49173;43.164;27.786;2022-08-21T11:36:58;9.10;;;5.72;;
63087;SDS011;49173;43.164;27.786;2022-08-21T11:42:02;10.45;;;5.85;;
63087;SDS011;49173;43.164;27.786;2022-08-21T11:44:51;11.02;;;5.82;;
63087;SDS011;49173;43.164;27.786;2022-08-21T11:47:33;12.20;;;5.50;;
63087;SDS011;49173;43.164;27.786;2022-08-21T11:50:30;13.55;;;5.72;;
63087;SDS011;49173;43.164;27.786;2022-08-21T11:58:40;10.05;;;5.78;;
63087;SDS011;49173;43.164;27.786;2022-08-21T12:01:21;13.07;;;6.28;;
63087;SDS011;49173;43.164;27.786;2022-08-21T12:03:52;10.63;;;5.38;;
63087;SDS011;49173;43.164;27.786;2022-08-21T12:06:40;10.43;;;6.03;;
63087;SDS011;49173;43.164;27.786;2022-08-21T12:12:11;8.85;;;5.85;;
63087;SDS011;49173;43.164;27.786;2022-08-21T12:14:51;13.40;;;5.65;;
63087;SDS011;49173;43.164;27.786;2022-08-21T12:17:37;10.20;;;5.60;;
63087;SDS011;49173;43.164;27.786;2022-08-21T12:22:50;7.78;;;5.45;;
63087;SDS011;49173;43.164;27.786;2022-08-21T12:25:20;12.85;;;5.53;;
63087;SDS011;49173;43.164;27.786;2022-08-21T12:27:50;9.07;;;5.75;;
63087;SDS011;49173;43.164;27.786;2022-08-21T12:32:59;10.63;;;5.40;;
63087;SDS011;49173;43.164;27.786;2022-08-21T12:35:33;10.57;;;5.32;;
63087;SDS011;49173;43.164;27.786;2022-08-21T12:38:07;6.88;;;5.22;;
63087;SDS011;49173;43.164;27.786;2022-08-21T12:43:18;11.32;;;5.07;;
63087;SDS011;49173;43.164;27.786;2022-08-21T12:45:51;7.80;;;5.32;;
63087;SDS011;49173;43.164;27.786;2022-08-21T12:50:55;13.48;;;5.55;;
63087;SDS011;49173;43.164;27.786;2022-08-21T12:53:43;11.23;;;5.18;;
63087;SDS011;49173;43.164;27.786;2022-08-21T12:56:17;11.07;;;5.20;;
63087;SDS011;49173;43.164;27.786;2022-08-21T12:58:47;13.27;;;5.05;;
63087;SDS011;49173;43.164;27.786;2022-08-21T13:01:27;12.15;;;5.32;;
63087;SDS011;49173;43.164;27.786;2022-08-21T13:04:18;10.80;;;5.03;;
63087;SDS011;49173;43.164;27.786;2022-08-21T13:06:49;8.95;;;5.20;;
63087;SDS011;49173;43.164;27.786;2022-08-21T13:09:20;10.32;;;4.68;;
63087;SDS011;49173;43.164;27.786;2022-08-21T13:11:54;8.30;;;4.95;;
63087;SDS011;49173;43.164;27.786;2022-08-21T13:17:06;10.43;;;4.90;;
63087;SDS011;49173;43.164;27.786;2022-08-21T13:19:33;12.50;;;5.10;;
63087;SDS011;49173;43.164;27.786;2022-08-21T13:22:00;8.52;;;4.95;;
63087;SDS011;49173;43.164;27.786;2022-08-21T13:24:34;11.82;;;5.15;;
63087;SDS011;49173;43.164;27.786;2022-08-21T13:27:03;10.25;;;5.32;;
63087;SDS011;49173;43.164;27.786;2022-08-21T13:29:40;7.93;;;5.43;;
63087;SDS011;49173;43.164;27.786;2022-08-21T13:34:45;14.63;;;5.28;;
63087;SDS011;49173;43.164;27.786;2022-08-21T13:37:15;12.02;;;5.47;;
63087;SDS011;49173;43.164;27.786;2022-08-21T13:39:47;9.23;;;5.63;;
63087;SDS011;49173;43.164;27.786;2022-08-21T13:42:17;13.25;;;5.57;;
63087;SDS011;49173;43.164;27.786;2022-08-21T13:44:45;12.45;;;5.55;;
63087;SDS011;49173;43.164;27.786;2022-08-21T13:47:16;13.85;;;6.38;;
63087;SDS011;49173;43.164;27.786;2022-08-21T13:49:45;8.65;;;5.28;;
63087;SDS011;49173;43.164;27.786;2022-08-21T13:54:43;12.93;;;6.65;;
63087;SDS011;49173;43.164;27.786;2022-08-21T13:57:16;15.07;;;6.10;;
63087;SDS011;49173;43.164;27.786;2022-08-21T13:59:46;14.38;;;5.72;;
63087;SDS011;49173;43.164;27.786;2022-08-21T14:02:15;7.25;;;5.38;;
63087;SDS011;49173;43.164;27.786;2022-08-21T14:04:52;13.13;;;6.78;;
63087;SDS011;49173;43.164;27.786;2022-08-21T14:07:32;12.75;;;5.80;;
63087;SDS011;49173;43.164;27.786;2022-08-21T14:10:05;9.85;;;5.22;;
63087;SDS011;49173;43.164;27.786;2022-08-21T14:12:47;10.30;;;5.63;;
63087;SDS011;49173;43.164;27.786;2022-08-21T14:15:17;13.65;;;5.70;;
63087;SDS011;49173;43.164;27.786;2022-08-21T14:18:18;14.65;;;5.90;;
63087;SDS011;49173;43.164;27.786;2022-08-21T14:20:48;11.93;;;5.40;;
63087;SDS011;49173;43.164;27.786;2022-08-21T14:23:25;8.40;;;4.95;;
63087;SDS011;49173;43.164;27.786;2022-08-21T14:25:52;11.48;;;5.25;;
63087;SDS011;49173;43.164;27.786;2022-08-21T14:28:28;9.73;;;5.07;;
63087;SDS011;49173;43.164;27.786;2022-08-21T14:31:20;12.38;;;5.72;;
63087;SDS011;49173;43.164;27.786;2022-08-21T14:33:47;10.52;;;5.30;;
63087;SDS011;49173;43.164;27.786;2022-08-21T14:36:14;13.57;;;5.53;;
63087;SDS011;49173;43.164;27.786;2022-08-21T14:38:40;16.35;;;5.47;;
63087;SDS011;49173;43.164;27.786;2022-08-21T14:41:13;30.52;;;6.22;;
63087;SDS011;49173;43.164;27.786;2022-08-21T14:43:45;48.38;;;7.18;;
63087;SDS011;49173;43.164;27.786;2022-08-21T14:46:18;19.30;;;5.18;;
63087;SDS011;49173;43.164;27.786;2022-08-21T14:48:52;18.73;;;6.10;;
63087;SDS011;49173;43.164;27.786;2022-08-21T14:53:47;11.98;;;5.60;;
63087;SDS011;49173;43.164;27.786;2022-08-21T14:56:14;16.83;;;5.50;;
63087;SDS011;49173;43.164;27.786;2022-08-21T14:58:51;14.05;;;6.10;;
63087;SDS011;49173;43.164;27.786;2022-08-21T15:01:30;20.67;;;6.38;;
63087;SDS011;49173;43.164;27.786;2022-08-21T15:04:03;10.73;;;5.50;;
63087;SDS011;49173;43.164;27.786;2022-08-21T15:06:31;13.70;;;5.47;;
63087;SDS011;49173;43.164;27.786;2022-08-21T15:08:58;19.80;;;5.78;;
63087;SDS011;49173;43.164;27.786;2022-08-21T15:11:24;12.13;;;5.57;;
63087;SDS011;49173;43.164;27.786;2022-08-21T15:13:56;10.05;;;5.68;;
63087;SDS011;49173;43.164;27.786;2022-08-21T15:16:26;11.38;;;5.20;;
63087;SDS011;49173;43.164;27.786;2022-08-21T15:18:56;11.35;;;5.63;;
63087;SDS011;49173;43.164;27.786;2022-08-21T15:21:24;8.98;;;5.55;;
63087;SDS011;49173;43.164;27.786;2022-08-21T15:23:51;10.43;;;5.70;;
63087;SDS011;49173;43.164;27.786;2022-08-21T15:26:23;28.13;;;6.53;;
63087;SDS011;49173;43.164;27.786;2022-08-21T15:28:52;11.88;;;5.40;;
63087;SDS011;49173;43.164;27.786;2022-08-21T15:31:20;14.60;;;5.82;;
63087;SDS011;49173;43.164;27.786;2022-08-21T15:33:46;12.57;;;5.80;;
63087;SDS011;49173;43.164;27.786;2022-08-21T15:36:12;15.15;;;6.03;;
63087;SDS011;49173;43.164;27.786;2022-08-21T15:38:39;10.10;;;5.93;;
63087;SDS011;49173;43.164;27.786;2022-08-21T15:41:05;11.93;;;5.78;;
63087;SDS011;49173;43.164;27.786;2022-08-21T15:43:38;10.88;;;5.70;;
63087;SDS011;49173;43.164;27.786;2022-08-21T15:46:09;9.40;;;6.00;;
63087;SDS011;49173;43.164;27.786;2022-08-21T15:48:40;13.55;;;5.53;;
63087;SDS011;49173;43.164;27.786;2022-08-21T15:51:11;15.65;;;6.35;;
63087;SDS011;49173;43.164;27.786;2022-08-21T15:53:41;12.95;;;6.20;;
63087;SDS011;49173;43.164;27.786;2022-08-21T15:56:18;8.40;;;5.18;;
63087;SDS011;49173;43.164;27.786;2022-08-21T15:58:49;10.80;;;6.25;;
63087;SDS011;49173;43.164;27.786;2022-08-21T16:01:16;10.88;;;6.22;;